sensor_id;sensor_type;location;lat;lon;timestamp;temperature;humidity
20125;DHT22;10223;50.862;4.360;2023-03-26T00:01:28;9.60;99.90
20125;DHT22;10223;50.862;4.360;2023-03-26T00:03:58;9.50;99.90
20125;DHT22;10223;50.862;4.360;2023-03-26T00:06:27;9.40;99.90
20125;DHT22;10223;50.862;4.360;2023-03-26T00:08:55;9.40;99.90
20125;DHT22;10223;50.862;4.360;2023-03-26T00:11:24;9.40;99.90
20125;DHT22;10223;50.862;4.360;2023-03-26T00:13:52;9.40;99.90
20125;DHT22;10223;50.862;4.360;2023-03-26T00:16:22;9.40;99.90
20125;DHT22;10223;50.862;4.360;2023-03-26T00:18:51;9.40;99.90
20125;DHT22;10223;50.862;4.360;2023-03-26T00:21:21;9.50;99.90
20125;DHT22;10223;50.862;4.360;2023-03-26T00:23:50;9.60;99.90
20125;DHT22;10223;50.862;4.360;2023-03-26T00:26:18;9.60;99.90
20125;DHT22;10223;50.862;4.360;2023-03-26T00:28:45;9.60;99.90
20125;DHT22;10223;50.862;4.360;2023-03-26T00:31:16;9.80;99.90
20125;DHT22;10223;50.862;4.360;2023-03-26T00:33:43;9.90;99.90
20125;DHT22;10223;50.862;4.360;2023-03-26T00:36:13;9.80;99.90
20125;DHT22;10223;50.862;4.360;2023-03-26T00:38:43;9.80;99.90
20125;DHT22;10223;50.862;4.360;2023-03-26T00:41:13;9.80;99.90
20125;DHT22;10223;50.862;4.360;2023-03-26T00:43:47;9.80;99.90
20125;DHT22;10223;50.862;4.360;2023-03-26T00:46:15;9.90;99.90
20125;DHT22;10223;50.862;4.360;2023-03-26T00:48:42;10.10;99.90
20125;DHT22;10223;50.862;4.360;2023-03-26T00:51:12;10.00;99.90
20125;DHT22;10223;50.862;4.360;2023-03-26T00:53:40;9.90;99.90
20125;DHT22;10223;50.862;4.360;2023-03-26T00:56:08;9.80;99.90
20125;DHT22;10223;50.862;4.360;2023-03-26T00:58:36;9.70;99.90
20125;DHT22;10223;50.862;4.360;2023-03-26T01:01:05;9.70;99.90
20125;DHT22;10223;50.862;4.360;2023-03-26T01:03:34;9.80;99.90
20125;DHT22;10223;50.862;4.360;2023-03-26T01:06:03;9.90;99.90
20125;DHT22;10223;50.862;4.360;2023-03-26T01:08:36;9.80;99.90
20125;DHT22;10223;50.862;4.360;2023-03-26T01:11:06;9.80;99.90
20125;DHT22;10223;50.862;4.360;2023-03-26T01:13:40;9.90;99.90
20125;DHT22;10223;50.862;4.360;2023-03-26T01:16:16;9.80;99.90
20125;DHT22;10223;50.862;4.360;2023-03-26T01:18:45;9.80;99.90
20125;DHT22;10223;50.862;4.360;2023-03-26T01:21:16;9.60;99.90
20125;DHT22;10223;50.862;4.360;2023-03-26T01:23:59;9.60;99.90
20125;DHT22;10223;50.862;4.360;2023-03-26T01:26:49;9.50;99.90
20125;DHT22;10223;50.862;4.360;2023-03-26T01:29:24;9.40;99.90
20125;DHT22;10223;50.862;4.360;2023-03-26T01:32:05;9.30;99.90
20125;DHT22;10223;50.862;4.360;2023-03-26T01:34:41;9.30;99.90
20125;DHT22;10223;50.862;4.360;2023-03-26T01:37:18;9.30;99.90
20125;DHT22;10223;50.862;4.360;2023-03-26T01:39:51;9.40;99.90
20125;DHT22;10223;50.862;4.360;2023-03-26T01:42:27;9.30;99.90
20125;DHT22;10223;50.862;4.360;2023-03-26T01:44:59;9.40;99.90
20125;DHT22;10223;50.862;4.360;2023-03-26T01:47:30;9.40;99.90
20125;DHT22;10223;50.862;4.360;2023-03-26T01:49:57;9.40;99.90
20125;DHT22;10223;50.862;4.360;2023-03-26T01:52:24;9.50;99.90
20125;DHT22;10223;50.862;4.360;2023-03-26T01:54:55;9.60;99.90
20125;DHT22;10223;50.862;4.360;2023-03-26T01:57:31;9.60;99.90
20125;DHT22;10223;50.862;4.360;2023-03-26T02:00:17;9.60;99.90
20125;DHT22;10223;50.862;4.360;2023-03-26T02:03:05;9.70;99.90
20125;DHT22;10223;50.862;4.360;2023-03-26T02:05:48;9.80;99.90
20125;DHT22;10223;50.862;4.360;2023-03-26T02:08:21;9.80;99.90
20125;DHT22;10223;50.862;4.360;2023-03-26T02:10:53;9.80;99.90
20125;DHT22;10223;50.862;4.360;2023-03-26T02:13:23;9.80;99.90
20125;DHT22;10223;50.862;4.360;2023-03-26T02:15:54;9.70;99.90
20125;DHT22;10223;50.862;4.360;2023-03-26T02:18:21;9.80;99.90
20125;DHT22;10223;50.862;4.360;2023-03-26T02:20:49;9.80;99.90
20125;DHT22;10223;50.862;4.360;2023-03-26T02:23:18;10.00;99.90
20125;DHT22;10223;50.862;4.360;2023-03-26T02:25:45;9.90;99.90
20125;DHT22;10223;50.862;4.360;2023-03-26T02:28:13;9.80;99.90
20125;DHT22;10223;50.862;4.360;2023-03-26T02:30:41;9.80;99.90
20125;DHT22;10223;50.862;4.360;2023-03-26T02:33:10;9.70;99.90
20125;DHT22;10223;50.862;4.360;2023-03-26T02:35:40;9.70;99.90
20125;DHT22;10223;50.862;4.360;2023-03-26T02:38:09;9.60;99.90
20125;DHT22;10223;50.862;4.360;2023-03-26T02:40:39;9.60;99.90
20125;DHT22;10223;50.862;4.360;2023-03-26T02:43:06;9.70;99.90
20125;DHT22;10223;50.862;4.360;2023-03-26T02:45:34;9.70;99.90
20125;DHT22;10223;50.862;4.360;2023-03-26T02:48:03;9.70;99.90
20125;DHT22;10223;50.862;4.360;2023-03-26T02:50:30;9.70;99.90
20125;DHT22;10223;50.862;4.360;2023-03-26T02:53:01;9.60;99.90
20125;DHT22;10223;50.862;4.360;2023-03-26T02:55:28;9.50;99.90
20125;DHT22;10223;50.862;4.360;2023-03-26T02:57:55;9.50;99.90
20125;DHT22;10223;50.862;4.360;2023-03-26T03:00:22;9.60;99.90
20125;DHT22;10223;50.862;4.360;2023-03-26T03:02:51;9.60;99.90
20125;DHT22;10223;50.862;4.360;2023-03-26T03:05:19;9.60;99.90
20125;DHT22;10223;50.862;4.360;2023-03-26T03:07:50;9.70;99.90
20125;DHT22;10223;50.862;4.360;2023-03-26T03:10:22;9.80;99.90
20125;DHT22;10223;50.862;4.360;2023-03-26T03:12:49;9.80;99.90
20125;DHT22;10223;50.862;4.360;2023-03-26T03:15:16;9.90;99.90
20125;DHT22;10223;50.862;4.360;2023-03-26T03:17:43;9.80;99.90
20125;DHT22;10223;50.862;4.360;2023-03-26T03:20:12;9.70;99.90
20125;DHT22;10223;50.862;4.360;2023-03-26T03:22:40;9.80;99.90
20125;DHT22;10223;50.862;4.360;2023-03-26T03:25:08;9.70;99.90
20125;DHT22;10223;50.862;4.360;2023-03-26T03:27:39;9.70;99.90
20125;DHT22;10223;50.862;4.360;2023-03-26T03:30:08;9.60;99.90
20125;DHT22;10223;50.862;4.360;2023-03-26T03:32:37;9.70;99.90
20125;DHT22;10223;50.862;4.360;2023-03-26T03:35:04;9.80;99.90
20125;DHT22;10223;50.862;4.360;2023-03-26T03:37:33;9.70;99.90
20125;DHT22;10223;50.862;4.360;2023-03-26T03:40:00;9.70;99.90
20125;DHT22;10223;50.862;4.360;2023-03-26T03:42:30;9.70;99.90
20125;DHT22;10223;50.862;4.360;2023-03-26T03:44:57;9.80;99.90
20125;DHT22;10223;50.862;4.360;2023-03-26T03:47:24;9.80;99.90
20125;DHT22;10223;50.862;4.360;2023-03-26T03:49:51;9.80;99.90
20125;DHT22;10223;50.862;4.360;2023-03-26T03:52:18;9.70;99.90
20125;DHT22;10223;50.862;4.360;2023-03-26T03:54:46;9.80;99.90
20125;DHT22;10223;50.862;4.360;2023-03-26T03:57:14;9.80;99.90
20125;DHT22;10223;50.862;4.360;2023-03-26T03:59:43;9.70;99.90
20125;DHT22;10223;50.862;4.360;2023-03-26T04:02:11;9.70;99.90
20125;DHT22;10223;50.862;4.360;2023-03-26T04:04:38;9.70;99.90
20125;DHT22;10223;50.862;4.360;2023-03-26T04:07:05;9.80;99.90
20125;DHT22;10223;50.862;4.360;2023-03-26T04:09:32;9.80;99.90
20125;DHT22;10223;50.862;4.360;2023-03-26T04:12:01;9.80;99.90
20125;DHT22;10223;50.862;4.360;2023-03-26T04:14:27;9.80;99.90
20125;DHT22;10223;50.862;4.360;2023-03-26T04:16:54;9.70;99.90
20125;DHT22;10223;50.862;4.360;2023-03-26T04:19:21;9.60;99.90
20125;DHT22;10223;50.862;4.360;2023-03-26T04:21:49;9.50;99.90
20125;DHT22;10223;50.862;4.360;2023-03-26T04:24:16;9.60;99.90
20125;DHT22;10223;50.862;4.360;2023-03-26T04:26:43;9.60;99.90
20125;DHT22;10223;50.862;4.360;2023-03-26T04:29:14;9.60;99.90
20125;DHT22;10223;50.862;4.360;2023-03-26T04:31:43;9.60;99.90
20125;DHT22;10223;50.862;4.360;2023-03-26T04:34:18;9.60;99.90
20125;DHT22;10223;50.862;4.360;2023-03-26T04:36:48;9.60;99.90
20125;DHT22;10223;50.862;4.360;2023-03-26T04:39:16;9.60;99.90
20125;DHT22;10223;50.862;4.360;2023-03-26T04:41:43;9.70;99.90
20125;DHT22;10223;50.862;4.360;2023-03-26T04:44:12;9.70;99.90
20125;DHT22;10223;50.862;4.360;2023-03-26T04:46:42;9.60;99.90
20125;DHT22;10223;50.862;4.360;2023-03-26T04:49:09;9.60;99.90
20125;DHT22;10223;50.862;4.360;2023-03-26T04:51:37;9.70;99.90
20125;DHT22;10223;50.862;4.360;2023-03-26T04:54:06;9.60;99.90
20125;DHT22;10223;50.862;4.360;2023-03-26T04:56:39;9.50;99.90
20125;DHT22;10223;50.862;4.360;2023-03-26T04:59:14;9.50;99.90
20125;DHT22;10223;50.862;4.360;2023-03-26T05:01:42;9.50;99.90
20125;DHT22;10223;50.862;4.360;2023-03-26T05:04:10;9.40;99.90
20125;DHT22;10223;50.862;4.360;2023-03-26T05:06:37;9.50;99.90
20125;DHT22;10223;50.862;4.360;2023-03-26T05:09:04;9.50;99.90
20125;DHT22;10223;50.862;4.360;2023-03-26T05:11:33;9.50;99.90
20125;DHT22;10223;50.862;4.360;2023-03-26T05:14:00;9.60;99.90
20125;DHT22;10223;50.862;4.360;2023-03-26T05:16:29;9.70;99.90
20125;DHT22;10223;50.862;4.360;2023-03-26T05:18:56;9.70;99.90
20125;DHT22;10223;50.862;4.360;2023-03-26T05:21:23;9.70;99.90
20125;DHT22;10223;50.862;4.360;2023-03-26T05:23:50;9.60;99.90
20125;DHT22;10223;50.862;4.360;2023-03-26T05:26:17;9.50;99.90
20125;DHT22;10223;50.862;4.360;2023-03-26T05:28:44;9.50;99.90
20125;DHT22;10223;50.862;4.360;2023-03-26T05:31:11;9.40;99.90
20125;DHT22;10223;50.862;4.360;2023-03-26T05:33:41;9.40;99.90
20125;DHT22;10223;50.862;4.360;2023-03-26T05:36:10;9.30;99.90
20125;DHT22;10223;50.862;4.360;2023-03-26T05:38:40;9.30;99.90
20125;DHT22;10223;50.862;4.360;2023-03-26T05:41:09;9.20;99.90
20125;DHT22;10223;50.862;4.360;2023-03-26T05:43:36;9.20;99.90
20125;DHT22;10223;50.862;4.360;2023-03-26T05:46:03;9.20;99.90
20125;DHT22;10223;50.862;4.360;2023-03-26T05:48:30;9.10;99.90
20125;DHT22;10223;50.862;4.360;2023-03-26T05:50:59;9.10;99.90
20125;DHT22;10223;50.862;4.360;2023-03-26T05:53:26;9.00;99.90
20125;DHT22;10223;50.862;4.360;2023-03-26T05:55:54;8.90;99.90
20125;DHT22;10223;50.862;4.360;2023-03-26T05:58:22;8.90;99.90
20125;DHT22;10223;50.862;4.360;2023-03-26T06:00:55;8.90;99.90
20125;DHT22;10223;50.862;4.360;2023-03-26T06:03:24;8.80;99.90
20125;DHT22;10223;50.862;4.360;2023-03-26T06:05:51;8.80;99.90
20125;DHT22;10223;50.862;4.360;2023-03-26T06:08:19;8.60;99.90
20125;DHT22;10223;50.862;4.360;2023-03-26T06:10:47;8.60;99.90
20125;DHT22;10223;50.862;4.360;2023-03-26T06:13:15;8.50;99.90
20125;DHT22;10223;50.862;4.360;2023-03-26T06:15:42;8.50;99.90
20125;DHT22;10223;50.862;4.360;2023-03-26T06:18:09;8.50;99.90
20125;DHT22;10223;50.862;4.360;2023-03-26T06:20:36;8.40;99.90
20125;DHT22;10223;50.862;4.360;2023-03-26T06:23:03;8.30;99.90
20125;DHT22;10223;50.862;4.360;2023-03-26T06:25:31;8.30;99.90
20125;DHT22;10223;50.862;4.360;2023-03-26T06:27:58;8.20;99.90
20125;DHT22;10223;50.862;4.360;2023-03-26T06:30:25;8.20;99.90
20125;DHT22;10223;50.862;4.360;2023-03-26T06:32:52;8.20;99.90
20125;DHT22;10223;50.862;4.360;2023-03-26T06:35:19;8.30;99.90
20125;DHT22;10223;50.862;4.360;2023-03-26T06:37:46;8.40;99.90
20125;DHT22;10223;50.862;4.360;2023-03-26T06:40:13;8.20;99.90
20125;DHT22;10223;50.862;4.360;2023-03-26T06:42:41;8.20;99.90
20125;DHT22;10223;50.862;4.360;2023-03-26T06:45:09;8.10;99.90
20125;DHT22;10223;50.862;4.360;2023-03-26T06:47:36;8.00;99.90
20125;DHT22;10223;50.862;4.360;2023-03-26T06:50:04;7.90;99.90
20125;DHT22;10223;50.862;4.360;2023-03-26T06:52:31;7.90;99.90
20125;DHT22;10223;50.862;4.360;2023-03-26T06:54:58;7.90;99.90
20125;DHT22;10223;50.862;4.360;2023-03-26T06:57:25;7.80;99.90
20125;DHT22;10223;50.862;4.360;2023-03-26T06:59:53;7.80;99.90
20125;DHT22;10223;50.862;4.360;2023-03-26T07:02:20;7.80;99.90
20125;DHT22;10223;50.862;4.360;2023-03-26T07:04:47;7.70;99.90
20125;DHT22;10223;50.862;4.360;2023-03-26T07:07:14;7.80;99.90
20125;DHT22;10223;50.862;4.360;2023-03-26T07:09:41;7.80;99.90
20125;DHT22;10223;50.862;4.360;2023-03-26T07:12:08;7.60;99.90
20125;DHT22;10223;50.862;4.360;2023-03-26T07:14:35;7.70;99.90
20125;DHT22;10223;50.862;4.360;2023-03-26T07:17:04;7.60;99.90
20125;DHT22;10223;50.862;4.360;2023-03-26T07:19:31;7.60;99.90
20125;DHT22;10223;50.862;4.360;2023-03-26T07:21:59;7.70;99.90
20125;DHT22;10223;50.862;4.360;2023-03-26T07:24:27;7.70;99.90
20125;DHT22;10223;50.862;4.360;2023-03-26T07:27:00;7.90;99.90
20125;DHT22;10223;50.862;4.360;2023-03-26T07:29:34;7.90;99.90
20125;DHT22;10223;50.862;4.360;2023-03-26T07:32:10;8.00;99.90
20125;DHT22;10223;50.862;4.360;2023-03-26T07:34:50;8.10;99.90
20125;DHT22;10223;50.862;4.360;2023-03-26T07:37:31;8.20;99.90
20125;DHT22;10223;50.862;4.360;2023-03-26T07:40:07;8.30;99.90
20125;DHT22;10223;50.862;4.360;2023-03-26T07:42:44;8.30;99.90
20125;DHT22;10223;50.862;4.360;2023-03-26T07:45:19;8.20;99.90
20125;DHT22;10223;50.862;4.360;2023-03-26T07:47:49;8.20;99.90
20125;DHT22;10223;50.862;4.360;2023-03-26T07:50:20;8.30;99.90
20125;DHT22;10223;50.862;4.360;2023-03-26T07:52:48;8.30;99.90
20125;DHT22;10223;50.862;4.360;2023-03-26T07:55:17;8.20;99.90
20125;DHT22;10223;50.862;4.360;2023-03-26T07:57:54;8.30;99.90
20125;DHT22;10223;50.862;4.360;2023-03-26T08:00:29;8.10;99.90
20125;DHT22;10223;50.862;4.360;2023-03-26T08:03:23;8.10;99.90
20125;DHT22;10223;50.862;4.360;2023-03-26T08:06:02;8.10;99.90
20125;DHT22;10223;50.862;4.360;2023-03-26T08:08:37;8.00;99.90
20125;DHT22;10223;50.862;4.360;2023-03-26T08:11:20;8.10;99.90
20125;DHT22;10223;50.862;4.360;2023-03-26T08:13:58;8.20;99.90
20125;DHT22;10223;50.862;4.360;2023-03-26T08:16:29;8.30;99.90
20125;DHT22;10223;50.862;4.360;2023-03-26T08:19:04;8.30;99.90
20125;DHT22;10223;50.862;4.360;2023-03-26T08:21:39;8.30;99.90
20125;DHT22;10223;50.862;4.360;2023-03-26T08:24:14;8.20;99.90
20125;DHT22;10223;50.862;4.360;2023-03-26T08:26:46;8.20;99.90
20125;DHT22;10223;50.862;4.360;2023-03-26T08:29:19;8.20;99.90
20125;DHT22;10223;50.862;4.360;2023-03-26T08:31:49;8.20;99.90
20125;DHT22;10223;50.862;4.360;2023-03-26T08:34:18;8.20;99.90
20125;DHT22;10223;50.862;4.360;2023-03-26T08:36:45;8.20;99.90
20125;DHT22;10223;50.862;4.360;2023-03-26T08:39:12;8.10;99.90
20125;DHT22;10223;50.862;4.360;2023-03-26T08:42:13;8.20;99.90
20125;DHT22;10223;50.862;4.360;2023-03-26T08:45:07;8.30;99.90
20125;DHT22;10223;50.862;4.360;2023-03-26T08:48:07;8.30;99.90
20125;DHT22;10223;50.862;4.360;2023-03-26T08:51:10;8.40;99.90
20125;DHT22;10223;50.862;4.360;2023-03-26T08:57:09;8.30;99.90
20125;DHT22;10223;50.862;4.360;2023-03-26T09:00:00;8.40;99.90
20125;DHT22;10223;50.862;4.360;2023-03-26T09:05:47;8.20;99.90
20125;DHT22;10223;50.862;4.360;2023-03-26T09:08:56;8.40;99.90
20125;DHT22;10223;50.862;4.360;2023-03-26T09:11:55;8.40;99.90
20125;DHT22;10223;50.862;4.360;2023-03-26T09:14:58;8.40;99.90
20125;DHT22;10223;50.862;4.360;2023-03-26T09:17:57;8.40;99.90
20125;DHT22;10223;50.862;4.360;2023-03-26T09:20:59;8.40;99.90
20125;DHT22;10223;50.862;4.360;2023-03-26T09:23:56;8.30;99.90
20125;DHT22;10223;50.862;4.360;2023-03-26T09:26:28;8.40;99.90
20125;DHT22;10223;50.862;4.360;2023-03-26T09:29:29;8.40;99.90
20125;DHT22;10223;50.862;4.360;2023-03-26T09:32:25;8.50;99.90
20125;DHT22;10223;50.862;4.360;2023-03-26T09:35:52;8.50;99.90
20125;DHT22;10223;50.862;4.360;2023-03-26T09:38:42;8.60;99.90
20125;DHT22;10223;50.862;4.360;2023-03-26T09:41:14;8.40;99.90
20125;DHT22;10223;50.862;4.360;2023-03-26T09:46:53;8.50;99.90
20125;DHT22;10223;50.862;4.360;2023-03-26T09:49:41;8.40;99.90
20125;DHT22;10223;50.862;4.360;2023-03-26T09:52:21;8.30;99.90
20125;DHT22;10223;50.862;4.360;2023-03-26T09:55:20;8.30;99.90
20125;DHT22;10223;50.862;4.360;2023-03-26T09:58:06;8.30;99.90
20125;DHT22;10223;50.862;4.360;2023-03-26T10:00:43;8.40;99.90
20125;DHT22;10223;50.862;4.360;2023-03-26T10:03:39;8.40;99.90
20125;DHT22;10223;50.862;4.360;2023-03-26T10:06:29;8.30;99.90
20125;DHT22;10223;50.862;4.360;2023-03-26T10:09:09;8.40;99.90
20125;DHT22;10223;50.862;4.360;2023-03-26T10:12:08;8.50;99.90
20125;DHT22;10223;50.862;4.360;2023-03-26T10:14:41;8.40;99.90
20125;DHT22;10223;50.862;4.360;2023-03-26T10:17:26;8.50;99.90
20125;DHT22;10223;50.862;4.360;2023-03-26T10:20:05;8.40;99.90
20125;DHT22;10223;50.862;4.360;2023-03-26T10:22:48;8.20;99.90
20125;DHT22;10223;50.862;4.360;2023-03-26T10:25:39;8.30;99.90
20125;DHT22;10223;50.862;4.360;2023-03-26T10:28:29;8.10;99.90
20125;DHT22;10223;50.862;4.360;2023-03-26T10:31:16;8.00;99.90
20125;DHT22;10223;50.862;4.360;2023-03-26T10:33:58;8.00;99.90
20125;DHT22;10223;50.862;4.360;2023-03-26T10:36:30;8.00;99.90
20125;DHT22;10223;50.862;4.360;2023-03-26T10:39:11;8.00;99.90
20125;DHT22;10223;50.862;4.360;2023-03-26T10:41:50;8.00;99.90
20125;DHT22;10223;50.862;4.360;2023-03-26T10:44:57;8.00;99.90
20125;DHT22;10223;50.862;4.360;2023-03-26T10:47:47;7.90;99.90
20125;DHT22;10223;50.862;4.360;2023-03-26T10:50:31;7.90;99.90
20125;DHT22;10223;50.862;4.360;2023-03-26T10:53:03;8.00;99.90
20125;DHT22;10223;50.862;4.360;2023-03-26T10:55:36;7.90;99.90
20125;DHT22;10223;50.862;4.360;2023-03-26T10:58:10;8.00;99.90
20125;DHT22;10223;50.862;4.360;2023-03-26T11:00:43;8.00;99.90
20125;DHT22;10223;50.862;4.360;2023-03-26T11:03:30;8.00;99.90
20125;DHT22;10223;50.862;4.360;2023-03-26T11:06:06;7.90;99.90
20125;DHT22;10223;50.862;4.360;2023-03-26T11:08:40;7.90;99.90
20125;DHT22;10223;50.862;4.360;2023-03-26T11:11:18;7.90;99.90
20125;DHT22;10223;50.862;4.360;2023-03-26T11:13:55;7.90;99.90
20125;DHT22;10223;50.862;4.360;2023-03-26T11:16:32;7.80;99.90
20125;DHT22;10223;50.862;4.360;2023-03-26T11:19:04;7.80;99.90
20125;DHT22;10223;50.862;4.360;2023-03-26T11:21:41;7.90;99.90
20125;DHT22;10223;50.862;4.360;2023-03-26T11:24:39;7.90;99.90
20125;DHT22;10223;50.862;4.360;2023-03-26T11:27:15;7.90;99.90
20125;DHT22;10223;50.862;4.360;2023-03-26T11:29:51;7.90;99.90
20125;DHT22;10223;50.862;4.360;2023-03-26T11:32:25;7.90;99.90
20125;DHT22;10223;50.862;4.360;2023-03-26T11:34:57;7.90;99.90
20125;DHT22;10223;50.862;4.360;2023-03-26T11:37:30;7.90;99.90
20125;DHT22;10223;50.862;4.360;2023-03-26T11:40:00;8.00;99.90
20125;DHT22;10223;50.862;4.360;2023-03-26T11:42:29;8.00;99.90
20125;DHT22;10223;50.862;4.360;2023-03-26T11:44:59;8.10;99.90
20125;DHT22;10223;50.862;4.360;2023-03-26T11:47:31;8.20;99.90
20125;DHT22;10223;50.862;4.360;2023-03-26T11:50:01;8.20;99.90
20125;DHT22;10223;50.862;4.360;2023-03-26T11:52:29;8.20;99.90
20125;DHT22;10223;50.862;4.360;2023-03-26T11:54:56;8.20;99.90
20125;DHT22;10223;50.862;4.360;2023-03-26T11:57:26;8.30;99.90
20125;DHT22;10223;50.862;4.360;2023-03-26T11:59:57;8.30;99.90
20125;DHT22;10223;50.862;4.360;2023-03-26T12:02:36;8.30;99.90
20125;DHT22;10223;50.862;4.360;2023-03-26T12:05:13;8.60;99.90
20125;DHT22;10223;50.862;4.360;2023-03-26T12:07:51;8.50;99.90
20125;DHT22;10223;50.862;4.360;2023-03-26T12:10:25;8.50;99.90
20125;DHT22;10223;50.862;4.360;2023-03-26T12:12:55;8.30;99.90
20125;DHT22;10223;50.862;4.360;2023-03-26T12:15:23;8.40;99.90
20125;DHT22;10223;50.862;4.360;2023-03-26T12:17:54;8.30;99.90
20125;DHT22;10223;50.862;4.360;2023-03-26T12:20:34;8.60;99.90
20125;DHT22;10223;50.862;4.360;2023-03-26T12:23:04;8.50;99.90
20125;DHT22;10223;50.862;4.360;2023-03-26T12:25:33;8.50;99.90
20125;DHT22;10223;50.862;4.360;2023-03-26T12:28:03;8.60;99.90
20125;DHT22;10223;50.862;4.360;2023-03-26T12:30:31;8.50;99.90
20125;DHT22;10223;50.862;4.360;2023-03-26T12:33:03;8.60;99.90
20125;DHT22;10223;50.862;4.360;2023-03-26T12:35:31;8.70;99.90
20125;DHT22;10223;50.862;4.360;2023-03-26T12:38:22;8.80;99.90
20125;DHT22;10223;50.862;4.360;2023-03-26T12:41:03;8.80;99.90
20125;DHT22;10223;50.862;4.360;2023-03-26T12:43:36;8.80;99.90
20125;DHT22;10223;50.862;4.360;2023-03-26T12:46:19;8.90;99.90
20125;DHT22;10223;50.862;4.360;2023-03-26T12:48:50;8.90;99.90
20125;DHT22;10223;50.862;4.360;2023-03-26T12:51:24;8.90;99.90
20125;DHT22;10223;50.862;4.360;2023-03-26T12:54:14;8.90;99.90
20125;DHT22;10223;50.862;4.360;2023-03-26T12:56:54;8.90;99.90
20125;DHT22;10223;50.862;4.360;2023-03-26T12:59:35;8.90;99.90
20125;DHT22;10223;50.862;4.360;2023-03-26T13:02:20;8.90;99.90
20125;DHT22;10223;50.862;4.360;2023-03-26T13:05:15;8.90;99.90
20125;DHT22;10223;50.862;4.360;2023-03-26T13:07:53;9.00;99.90
20125;DHT22;10223;50.862;4.360;2023-03-26T13:10:37;9.20;99.90
20125;DHT22;10223;50.862;4.360;2023-03-26T13:16:26;9.00;99.90
20125;DHT22;10223;50.862;4.360;2023-03-26T13:18:59;9.20;99.90
20125;DHT22;10223;50.862;4.360;2023-03-26T13:21:40;9.30;99.90
20125;DHT22;10223;50.862;4.360;2023-03-26T13:24:20;9.10;99.90
20125;DHT22;10223;50.862;4.360;2023-03-26T13:26:57;9.20;99.90
20125;DHT22;10223;50.862;4.360;2023-03-26T13:29:36;9.20;99.90
20125;DHT22;10223;50.862;4.360;2023-03-26T13:32:09;9.40;99.90
20125;DHT22;10223;50.862;4.360;2023-03-26T13:34:55;9.40;99.90
20125;DHT22;10223;50.862;4.360;2023-03-26T13:37:31;9.00;99.90
20125;DHT22;10223;50.862;4.360;2023-03-26T13:40:15;9.00;99.90
20125;DHT22;10223;50.862;4.360;2023-03-26T13:42:55;9.10;99.90
20125;DHT22;10223;50.862;4.360;2023-03-26T13:45:40;9.30;99.90
20125;DHT22;10223;50.862;4.360;2023-03-26T13:48:11;9.40;99.90
20125;DHT22;10223;50.862;4.360;2023-03-26T13:50:42;9.50;99.90
20125;DHT22;10223;50.862;4.360;2023-03-26T13:53:14;9.50;99.90
20125;DHT22;10223;50.862;4.360;2023-03-26T13:55:46;9.60;99.90
20125;DHT22;10223;50.862;4.360;2023-03-26T13:58:20;9.60;99.90
20125;DHT22;10223;50.862;4.360;2023-03-26T14:00:51;9.70;99.90
20125;DHT22;10223;50.862;4.360;2023-03-26T14:03:28;9.40;99.90
20125;DHT22;10223;50.862;4.360;2023-03-26T14:05:59;9.40;99.90
20125;DHT22;10223;50.862;4.360;2023-03-26T14:08:34;9.20;99.90
20125;DHT22;10223;50.862;4.360;2023-03-26T14:11:08;9.20;99.90
20125;DHT22;10223;50.862;4.360;2023-03-26T14:13:42;9.30;99.90
20125;DHT22;10223;50.862;4.360;2023-03-26T14:16:14;9.20;99.90
20125;DHT22;10223;50.862;4.360;2023-03-26T14:18:48;9.20;99.90
20125;DHT22;10223;50.862;4.360;2023-03-26T14:21:34;9.30;99.90
20125;DHT22;10223;50.862;4.360;2023-03-26T14:27:23;9.30;99.90
20125;DHT22;10223;50.862;4.360;2023-03-26T14:33:16;9.30;99.90
20125;DHT22;10223;50.862;4.360;2023-03-26T14:35:57;9.40;99.90
20125;DHT22;10223;50.862;4.360;2023-03-26T14:38:46;9.40;99.90
20125;DHT22;10223;50.862;4.360;2023-03-26T14:41:22;9.50;99.90
20125;DHT22;10223;50.862;4.360;2023-03-26T14:44:34;9.60;99.90
20125;DHT22;10223;50.862;4.360;2023-03-26T14:47:13;9.40;99.90
20125;DHT22;10223;50.862;4.360;2023-03-26T14:52:46;9.50;99.90
20125;DHT22;10223;50.862;4.360;2023-03-26T14:55:29;9.50;99.90
20125;DHT22;10223;50.862;4.360;2023-03-26T14:58:15;9.50;99.90
20125;DHT22;10223;50.862;4.360;2023-03-26T15:01:19;9.70;99.90
20125;DHT22;10223;50.862;4.360;2023-03-26T15:07:20;9.60;99.90
20125;DHT22;10223;50.862;4.360;2023-03-26T15:10:16;9.60;99.90
20125;DHT22;10223;50.862;4.360;2023-03-26T15:16:18;9.70;99.90
20125;DHT22;10223;50.862;4.360;2023-03-26T15:19:17;9.80;99.90
20125;DHT22;10223;50.862;4.360;2023-03-26T15:25:38;9.80;99.90
20125;DHT22;10223;50.862;4.360;2023-03-26T15:28:39;9.80;99.90
20125;DHT22;10223;50.862;4.360;2023-03-26T15:34:50;9.80;99.90
20125;DHT22;10223;50.862;4.360;2023-03-26T15:40:46;9.70;99.90
20125;DHT22;10223;50.862;4.360;2023-03-26T15:43:18;9.70;99.90
20125;DHT22;10223;50.862;4.360;2023-03-26T15:45:48;9.70;99.90
20125;DHT22;10223;50.862;4.360;2023-03-26T15:48:28;9.80;99.90
20125;DHT22;10223;50.862;4.360;2023-03-26T15:51:11;9.70;99.90
20125;DHT22;10223;50.862;4.360;2023-03-26T15:53:47;9.80;99.90
20125;DHT22;10223;50.862;4.360;2023-03-26T15:56:32;9.60;99.90
20125;DHT22;10223;50.862;4.360;2023-03-26T15:59:20;9.60;99.90
20125;DHT22;10223;50.862;4.360;2023-03-26T16:01:55;9.40;99.90
20125;DHT22;10223;50.862;4.360;2023-03-26T16:04:40;9.10;99.90
20125;DHT22;10223;50.862;4.360;2023-03-26T16:07:27;9.00;99.90
20125;DHT22;10223;50.862;4.360;2023-03-26T16:10:08;8.90;99.90
20125;DHT22;10223;50.862;4.360;2023-03-26T16:12:46;8.90;99.90
20125;DHT22;10223;50.862;4.360;2023-03-26T16:15:27;8.90;99.90
20125;DHT22;10223;50.862;4.360;2023-03-26T16:18:29;8.70;99.90
20125;DHT22;10223;50.862;4.360;2023-03-26T16:24:23;8.60;99.90
20125;DHT22;10223;50.862;4.360;2023-03-26T16:27:01;8.60;99.90
20125;DHT22;10223;50.862;4.360;2023-03-26T16:29:33;8.60;99.90
20125;DHT22;10223;50.862;4.360;2023-03-26T16:32:12;8.70;99.90
20125;DHT22;10223;50.862;4.360;2023-03-26T16:34:46;8.90;99.90
20125;DHT22;10223;50.862;4.360;2023-03-26T16:37:39;8.80;99.90
20125;DHT22;10223;50.862;4.360;2023-03-26T16:40:35;8.90;99.90
20125;DHT22;10223;50.862;4.360;2023-03-26T16:43:32;8.90;99.90
20125;DHT22;10223;50.862;4.360;2023-03-26T16:46:07;8.90;99.90
20125;DHT22;10223;50.862;4.360;2023-03-26T16:48:44;8.90;99.90
20125;DHT22;10223;50.862;4.360;2023-03-26T16:51:21;8.90;99.90
20125;DHT22;10223;50.862;4.360;2023-03-26T16:53:57;9.00;99.90
20125;DHT22;10223;50.862;4.360;2023-03-26T16:56:32;9.00;99.90
20125;DHT22;10223;50.862;4.360;2023-03-26T16:59:08;9.00;99.90
20125;DHT22;10223;50.862;4.360;2023-03-26T17:01:44;9.00;99.90
20125;DHT22;10223;50.862;4.360;2023-03-26T17:04:14;9.10;99.90
20125;DHT22;10223;50.862;4.360;2023-03-26T17:07:02;8.90;99.90
20125;DHT22;10223;50.862;4.360;2023-03-26T17:09:48;8.80;99.90
20125;DHT22;10223;50.862;4.360;2023-03-26T17:12:27;8.90;99.90
20125;DHT22;10223;50.862;4.360;2023-03-26T17:15:11;8.90;99.90
20125;DHT22;10223;50.862;4.360;2023-03-26T17:17:59;9.00;99.90